Terminal Aerodrome Forecast
Issued by NWS Shreveport, LA

Home | Current Version | Previous Version | Text Only | Print | Product List | Glossary On
Versions: 1 2 3 4 5 6 7 8 9 10 11 12 13 14 15 16 17 18
000
FTUS44 KSHV 251715 RRA
TAFTXK

TAF
KTXK 251740Z 2518/2618 17010KT P6SM SCT025 BKN060 BKN100
     FM252100 17012G18KT P6SM VCTS BKN035CB OVC060
     FM260000 17010KT 4SM TSRA BR OVC035CB
     FM260700 17008KT 5SM -SHRA VCTS OVC020CB
     FM261200 20008KT 5SM BR OVC011
     FM261500 23010KT P6SM OVC015=

USA.gov is the U.S. government's official web portal to all federal, state and local government web resources and services.